Terminal Aerodrome Forecast
Issued by NWS St Louis, MO

Current Version | Previous Version | Text Only | Print | Product List | Glossary On
Versions: 1 2 3 4 5 6 7 8 9 10 11 12 13 14 15 16 17 18 19 20 21 22
000
FTUS43 KLSX 051120
TAFCOU
TAF
KCOU 051120Z 0512/0612 VRB04KT 6SM -SHRA OVC030
     FM051600 10006KT P6SM OVC030
     FM052100 05007KT 6SM SHRA VCTS OVC030CB
     FM060300 05005KT P6SM OVC030=

USA.gov is the U.S. government's official web portal to all federal, state and local government web resources and services.